Time,TemperatureF,DewpointF,PressureIn,WindDirection,WindDirectionDegrees,WindSpeedMPH,WindSpeedGustMPH,Humidity,HourlyPrecipIn,Conditions,Clouds,dailyrainin,SoftwareType,DateUTC
2013-11-06 00:03:00,56.6,55.8,29.75,South,187,10.0,10.0,97,0.00,,,0.00,Wunderground v.1.15,2013-11-06 06:03:00,
2013-11-06 00:08:00,56.6,55.8,29.76,South,181,13.0,16.0,97,0.00,,,0.00,Wunderground v.1.15,2013-11-06 06:08:00,
2013-11-06 00:14:00,56.6,55.8,29.75,South,183,10.0,14.0,97,0.00,,,0.00,Wunderground v.1.15,2013-11-06 06:14:00,
2013-11-06 00:19:00,56.6,55.8,29.75,South,190,17.0,17.0,97,0.00,,,0.00,Wunderground v.1.15,2013-11-06 06:19:00,
2013-11-06 00:24:00,56.6,55.8,29.75,South,182,16.0,16.0,97,0.00,,,0.00,Wunderground v.1.15,2013-11-06 06:24:00,
2013-11-06 00:30:00,56.7,55.9,29.75,SSW,198,16.0,17.0,97,0.00,,,0.01,Wunderground v.1.15,2013-11-06 06:30:00,
2013-11-06 00:35:00,56.7,55.9,29.75,South,175,18.0,18.0,97,0.00,,,0.01,Wunderground v.1.15,2013-11-06 06:35:00,
2013-11-06 00:42:00,56.6,55.8,29.74,SSE,168,12.0,14.0,97,0.08,,,0.02,Wunderground v.1.15,2013-11-06 06:42:00,
2013-11-06 00:48:00,56.6,55.8,29.74,SSE,155,16.0,16.0,97,0.07,,,0.03,Wunderground v.1.15,2013-11-06 06:48:00,
2013-11-06 00:53:00,56.7,55.9,29.74,SSW,194,12.0,13.0,97,0.07,,,0.03,Wunderground v.1.15,2013-11-06 06:53:00,
2013-11-06 00:59:00,56.7,55.9,29.74,South,182,10.0,16.0,97,0.05,,,0.04,Wunderground v.1.15,2013-11-06 06:59:00,
2013-11-06 01:04:00,56.7,55.9,29.74,South,179,10.0,16.0,97,0.14,,,0.05,Wunderground v.1.15,2013-11-06 07:04:00,
2013-11-06 01:10:00,56.8,56.0,29.73,South,180,10.0,13.0,97,0.19,,,0.07,Wunderground v.1.15,2013-11-06 07:10:00,
2013-11-06 01:16:00,56.7,55.9,29.74,SSW,194,10.0,12.0,97,0.12,,,0.08,Wunderground v.1.15,2013-11-06 07:16:00,
2013-11-06 01:22:00,56.8,56.0,29.74,South,183,10.0,10.0,97,0.05,,,0.08,Wunderground v.1.15,2013-11-06 07:22:00,
2013-11-06 01:28:00,56.6,55.5,29.74,NW,305,18.0,18.0,96,0.00,,,0.08,Wunderground v.1.15,2013-11-06 07:28:00,
2013-11-06 01:33:00,51.6,49.1,29.75,NNW,331,13.0,14.0,91,0.00,,,0.09,Wunderground v.1.15,2013-11-06 07:33:00,
2013-11-06 01:39:00,49.4,47.7,29.75,NNW,328,8.0,14.0,94,0.00,,,0.09,Wunderground v.1.15,2013-11-06 07:39:00,
2013-11-06 01:44:00,48.5,47.1,29.74,NW,321,5.0,10.0,95,0.00,,,0.09,Wunderground v.1.15,2013-11-06 07:44:00,
2013-11-06 01:50:00,47.8,46.4,29.73,NNW,330,9.0,11.0,95,0.00,,,0.09,Wunderground v.1.15,2013-11-06 07:50:00,
2013-11-06 01:55:00,47.3,46.2,29.74,NW,315,8.0,11.0,96,0.00,,,0.09,Wunderground v.1.15,2013-11-06 07:55:00,
2013-11-06 02:00:00,46.9,45.8,29.75,NW,311,8.0,10.0,96,0.00,,,0.09,Wunderground v.1.15,2013-11-06 08:00:00,
2013-11-06 02:05:00,46.6,45.5,29.76,WNW,297,13.0,16.0,96,0.00,,,0.09,Wunderground v.1.15,2013-11-06 08:05:00,
2013-11-06 02:10:00,46.0,44.9,29.77,NW,311,12.0,15.0,96,0.00,,,0.09,Wunderground v.1.15,2013-11-06 08:10:00,
2013-11-06 02:15:00,45.2,43.9,29.77,NNW,333,12.0,18.0,95,0.00,,,0.09,Wunderground v.1.15,2013-11-06 08:15:00,
2013-11-06 02:20:00,44.6,43.5,29.77,NNW,331,10.0,18.0,96,0.00,,,0.09,Wunderground v.1.15,2013-11-06 08:20:00,
2013-11-06 02:25:00,44.3,43.2,29.78,NNW,329,13.0,17.0,96,0.00,,,0.09,Wunderground v.1.15,2013-11-06 08:25:00,
2013-11-06 02:30:00,43.9,42.8,29.78,NNW,330,13.0,19.0,96,0.00,,,0.10,Wunderground v.1.15,2013-11-06 08:30:00,
2013-11-06 02:36:00,43.6,42.5,29.78,NW,315,14.0,15.0,96,0.00,,,0.10,Wunderground v.1.15,2013-11-06 08:36:00,
2013-11-06 02:43:00,43.3,42.2,29.78,WNW,300,11.0,12.0,96,0.00,,,0.10,Wunderground v.1.15,2013-11-06 08:43:00,
2013-11-06 02:48:00,43.1,42.0,29.78,NW,309,8.0,16.0,96,0.00,,,0.10,Wunderground v.1.15,2013-11-06 08:48:00,
2013-11-06 02:53:00,42.6,41.5,29.79,NNW,330,14.0,15.0,96,0.00,,,0.10,Wunderground v.1.15,2013-11-06 08:53:00,
2013-11-06 02:58:00,42.2,41.1,29.80,NNW,331,10.0,23.0,96,0.00,,,0.11,Wunderground v.1.15,2013-11-06 08:58:00,
2013-11-06 03:03:00,41.9,40.8,29.80,NW,320,14.0,15.0,96,0.17,,,0.12,Wunderground v.1.15,2013-11-06 09:03:00,
2013-11-06 03:08:00,41.5,40.4,29.80,NW,325,19.0,24.0,96,0.08,,,0.12,Wunderground v.1.15,2013-11-06 09:08:00,
2013-11-06 03:13:00,41.3,40.2,29.80,NNW,343,13.0,16.0,96,0.05,,,0.12,Wunderground v.1.15,2013-11-06 09:13:00,
2013-11-06 03:18:00,41.0,39.9,29.79,NNW,331,18.0,20.0,96,0.04,,,0.13,Wunderground v.1.15,2013-11-06 09:18:00,
2013-11-06 03:23:00,40.9,39.8,29.80,NNW,340,11.0,15.0,96,0.04,,,0.13,Wunderground v.1.15,2013-11-06 09:23:00,
2013-11-06 03:28:00,40.7,39.6,29.80,NW,323,13.0,18.0,96,0.04,,,0.13,Wunderground v.1.15,2013-11-06 09:28:00,
2013-11-06 03:33:00,40.4,39.4,29.80,NNW,342,14.0,14.0,96,0.00,,,0.13,Wunderground v.1.15,2013-11-06 09:33:00,
2013-11-06 03:38:00,40.4,39.4,29.80,NNW,346,11.0,17.0,96,0.00,,,0.13,Wunderground v.1.15,2013-11-06 09:38:00,
2013-11-06 03:43:00,40.2,39.2,29.79,NNW,346,15.0,16.0,96,0.00,,,0.13,Wunderground v.1.15,2013-11-06 09:43:00,
2013-11-06 03:48:00,40.0,39.0,29.78,North,355,19.0,21.0,96,0.00,,,0.13,Wunderground v.1.15,2013-11-06 09:48:00,
2013-11-06 03:53:00,40.0,39.0,29.79,NNW,344,15.0,19.0,96,0.00,,,0.13,Wunderground v.1.15,2013-11-06 09:53:00,
2013-11-06 03:58:00,40.0,39.0,29.80,NNW,343,11.0,19.0,96,0.00,,,0.13,Wunderground v.1.15,2013-11-06 09:58:00,
2013-11-06 04:03:00,39.8,38.5,29.79,NNW,346,10.0,14.0,95,0.00,,,0.13,Wunderground v.1.15,2013-11-06 10:03:00,
2013-11-06 04:08:00,39.4,38.4,29.79,NW,325,12.0,21.0,96,0.00,,,0.13,Wunderground v.1.15,2013-11-06 10:08:00,
2013-11-06 04:13:00,39.0,37.7,29.82,NNW,338,14.0,17.0,95,0.00,,,0.13,Wunderground v.1.15,2013-11-06 10:13:00,
2013-11-06 04:18:00,39.0,37.7,29.83,NNW,347,18.0,23.0,95,0.00,,,0.13,Wunderground v.1.15,2013-11-06 10:18:00,
2013-11-06 04:23:00,38.8,37.5,29.83,NNW,330,15.0,24.0,95,0.00,,,0.13,Wunderground v.1.15,2013-11-06 10:23:00,
2013-11-06 04:28:00,38.7,37.4,29.84,NNW,342,11.0,24.0,95,0.00,,,0.13,Wunderground v.1.15,2013-11-06 10:28:00,
2013-11-06 04:33:00,38.7,37.4,29.84,NW,322,15.0,17.0,95,0.00,,,0.13,Wunderground v.1.15,2013-11-06 10:33:00,
2013-11-06 04:38:00,38.6,37.0,29.84,NW,322,18.0,19.0,94,0.00,,,0.13,Wunderground v.1.15,2013-11-06 10:38:00,
2013-11-06 04:43:00,38.6,37.0,29.85,NNW,348,12.0,17.0,94,0.00,,,0.13,Wunderground v.1.15,2013-11-06 10:43:00,
2013-11-06 04:48:00,38.6,37.0,29.83,NNW,330,15.0,19.0,94,0.00,,,0.13,Wunderground v.1.15,2013-11-06 10:48:00,
2013-11-06 04:53:00,38.4,36.8,29.83,NNW,329,8.0,15.0,94,0.00,,,0.13,Wunderground v.1.15,2013-11-06 10:53:00,
2013-11-06 04:58:00,38.4,36.8,29.84,NNW,344,12.0,21.0,94,0.00,,,0.13,Wunderground v.1.15,2013-11-06 10:58:00,
2013-11-06 05:03:00,38.3,36.7,29.84,NNW,331,14.0,19.0,94,0.00,,,0.13,Wunderground v.1.15,2013-11-06 11:03:00,
2013-11-06 05:08:00,38.3,36.7,29.84,NNW,332,20.0,20.0,94,0.00,,,0.13,Wunderground v.1.15,2013-11-06 11:08:00,
2013-11-06 05:13:00,38.2,36.6,29.83,NNW,333,16.0,17.0,94,0.00,,,0.13,Wunderground v.1.15,2013-11-06 11:13:00,
2013-11-06 05:18:00,38.2,36.6,29.85,NNW,331,12.0,21.0,94,0.00,,,0.13,Wunderground v.1.15,2013-11-06 11:18:00,
2013-11-06 05:23:00,38.2,36.6,29.84,NNW,344,15.0,19.0,94,0.00,,,0.13,Wunderground v.1.15,2013-11-06 11:23:00,
2013-11-06 05:28:00,38.2,36.6,29.86,NW,317,18.0,19.0,94,0.00,,,0.13,Wunderground v.1.15,2013-11-06 11:28:00,
2013-11-06 05:33:00,38.1,36.5,29.87,NNW,336,18.0,18.0,94,0.00,,,0.13,Wunderground v.1.15,2013-11-06 11:33:00,
2013-11-06 05:38:00,38.2,36.6,29.88,NNW,347,18.0,21.0,94,0.00,,,0.13,Wunderground v.1.15,2013-11-06 11:38:00,
2013-11-06 05:43:00,38.0,36.4,29.89,NNW,346,21.0,22.0,94,0.00,,,0.13,Wunderground v.1.15,2013-11-06 11:43:00,
2013-11-06 05:48:00,37.8,36.2,29.85,NNW,338,15.0,26.0,94,0.00,,,0.13,Wunderground v.1.15,2013-11-06 11:48:00,
2013-11-06 05:53:00,37.7,36.1,29.86,NNW,346,17.0,22.0,94,0.00,,,0.13,Wunderground v.1.15,2013-11-06 11:53:00,
2013-11-06 05:58:00,37.7,36.1,29.85,NNW,339,20.0,25.0,94,0.00,,,0.13,Wunderground v.1.15,2013-11-06 11:58:00,
2013-11-06 06:03:00,37.7,36.1,29.86,NNW,345,14.0,18.0,94,0.00,,,0.13,Wunderground v.1.15,2013-11-06 12:03:00,
2013-11-06 06:08:00,37.7,36.1,29.87,North,351,12.0,22.0,94,0.00,,,0.13,Wunderground v.1.15,2013-11-06 12:08:00,
2013-11-06 06:14:00,37.7,36.1,29.86,NNW,342,16.0,18.0,94,0.00,,,0.13,Wunderground v.1.15,2013-11-06 12:14:00,
2013-11-06 06:19:00,37.7,36.1,29.85,North,355,21.0,22.0,94,0.00,,,0.13,Wunderground v.1.15,2013-11-06 12:19:00,
2013-11-06 06:24:00,37.6,36.0,29.87,NNW,344,14.0,19.0,94,0.00,,,0.13,Wunderground v.1.15,2013-11-06 12:24:00,
2013-11-06 06:29:00,37.5,35.9,29.85,NNW,340,18.0,22.0,94,0.00,,,0.13,Wunderground v.1.15,2013-11-06 12:29:00,
2013-11-06 06:34:00,37.4,35.8,29.88,NNW,344,16.0,23.0,94,0.00,,,0.13,Wunderground v.1.15,2013-11-06 12:34:00,
2013-11-06 06:39:00,37.2,35.9,29.89,NW,325,16.0,23.0,95,0.00,,,0.13,Wunderground v.1.15,2013-11-06 12:39:00,
2013-11-06 06:44:00,37.2,35.9,29.89,NNW,338,15.0,22.0,95,0.00,,,0.13,Wunderground v.1.15,2013-11-06 12:44:00,
2013-11-06 06:49:00,37.2,35.6,29.91,NNW,345,13.0,22.0,94,0.00,,,0.13,Wunderground v.1.15,2013-11-06 12:49:00,
2013-11-06 06:54:00,37.3,35.7,29.91,NNW,336,18.0,19.0,94,0.00,,,0.13,Wunderground v.1.15,2013-11-06 12:54:00,
2013-11-06 06:59:00,37.3,35.7,29.92,North,349,14.0,24.0,94,0.00,,,0.13,Wunderground v.1.15,2013-11-06 12:59:00,
2013-11-06 07:09:00,37.3,35.5,29.92,North,5,10.0,21.0,93,0.00,,,0.13,Wunderground v.1.15,2013-11-06 13:09:00,
2013-11-06 07:14:00,37.3,35.5,29.91,NNW,339,17.0,21.0,93,0.00,,,0.13,Wunderground v.1.15,2013-11-06 13:14:00,
2013-11-06 07:19:00,37.3,35.5,29.92,NNW,336,13.0,22.0,93,0.00,,,0.13,Wunderground v.1.15,2013-11-06 13:19:00,
2013-11-06 07:24:00,37.3,35.2,29.92,NNW,332,9.0,17.0,92,0.00,,,0.13,Wunderground v.1.15,2013-11-06 13:24:00,
2013-11-06 07:29:00,37.3,35.2,29.93,NNW,338,13.0,23.0,92,0.00,,,0.13,Wunderground v.1.15,2013-11-06 13:29:00,
2013-11-06 07:34:00,37.3,35.2,29.94,NNW,346,14.0,20.0,92,0.00,,,0.13,Wunderground v.1.15,2013-11-06 13:34:00,
2013-11-06 07:39:00,37.3,35.2,29.94,NNW,346,12.0,20.0,92,0.00,,,0.13,Wunderground v.1.15,2013-11-06 13:39:00,
2013-11-06 07:44:00,37.4,35.3,29.95,NNW,348,16.0,20.0,92,0.00,,,0.13,Wunderground v.1.15,2013-11-06 13:44:00,
2013-11-06 07:49:00,37.4,35.0,29.95,North,355,10.0,20.0,91,0.00,,,0.13,Wunderground v.1.15,2013-11-06 13:49:00,
2013-11-06 07:54:00,37.5,35.4,29.96,North,349,11.0,16.0,92,0.00,,,0.13,Wunderground v.1.15,2013-11-06 13:54:00,
2013-11-06 07:59:00,37.5,35.4,29.96,NNW,336,11.0,16.0,92,0.00,,,0.13,Wunderground v.1.15,2013-11-06 13:59:00,
2013-11-06 08:04:00,37.5,35.1,29.97,NNW,344,15.0,19.0,91,0.00,,,0.13,Wunderground v.1.15,2013-11-06 14:04:00,
2013-11-06 08:09:00,37.5,35.1,29.97,NNW,330,13.0,15.0,91,0.00,,,0.13,Wunderground v.1.15,2013-11-06 14:09:00,
2013-11-06 08:14:00,37.5,35.1,29.97,NNW,334,16.0,18.0,91,0.00,,,0.13,Wunderground v.1.15,2013-11-06 14:14:00,
2013-11-06 08:19:00,37.5,35.1,29.97,North,350,8.0,19.0,91,0.00,,,0.13,Wunderground v.1.15,2013-11-06 14:19:00,
2013-11-06 08:24:00,37.6,35.2,29.97,NNW,340,14.0,17.0,91,0.00,,,0.13,Wunderground v.1.15,2013-11-06 14:24:00,
2013-11-06 08:29:00,37.7,35.3,29.97,North,351,11.0,18.0,91,0.00,,,0.13,Wunderground v.1.15,2013-11-06 14:29:00,
2013-11-06 08:34:00,37.7,35.3,29.98,NNW,331,10.0,16.0,91,0.00,,,0.13,Wunderground v.1.15,2013-11-06 14:34:00,
2013-11-06 08:39:00,37.8,35.4,29.98,NNW,342,17.0,21.0,91,0.00,,,0.13,Wunderground v.1.15,2013-11-06 14:39:00,
2013-11-06 08:44:00,37.8,35.4,29.98,NNW,342,13.0,20.0,91,0.00,,,0.13,Wunderground v.1.15,2013-11-06 14:44:00,
2013-11-06 08:49:00,37.9,35.5,29.98,NNW,339,19.0,21.0,91,0.00,,,0.13,Wunderground v.1.15,2013-11-06 14:49:00,
2013-11-06 08:54:00,37.9,35.2,29.98,North,360,16.0,19.0,90,0.00,,,0.13,Wunderground v.1.15,2013-11-06 14:54:00,
2013-11-06 08:59:00,38.2,35.8,29.98,NNW,331,19.0,23.0,91,0.00,,,0.13,Wunderground v.1.15,2013-11-06 14:59:00,
2013-11-06 09:04:00,38.4,35.7,29.98,North,355,15.0,20.0,90,0.00,,,0.13,Wunderground v.1.15,2013-11-06 15:04:00,
2013-11-06 09:09:00,38.9,36.5,29.99,North,360,14.0,22.0,91,0.00,,,0.13,Wunderground v.1.15,2013-11-06 15:09:00,
2013-11-06 09:14:00,39.1,36.4,29.99,North,355,21.0,21.0,90,0.00,,,0.13,Wunderground v.1.15,2013-11-06 15:14:00,
2013-11-06 09:19:00,39.5,37.1,29.99,NNW,337,14.0,21.0,91,0.00,,,0.13,Wunderground v.1.15,2013-11-06 15:19:00,
2013-11-06 09:24:00,39.6,36.6,29.99,NNW,337,14.0,19.0,89,0.00,,,0.13,Wunderground v.1.15,2013-11-06 15:24:00,
2013-11-06 09:29:00,39.6,36.6,29.99,WNW,295,15.0,19.0,89,0.00,,,0.13,Wunderground v.1.15,2013-11-06 15:29:00,
2013-11-06 09:34:00,39.5,36.2,29.99,North,355,15.0,20.0,88,0.00,,,0.13,Wunderground v.1.15,2013-11-06 15:34:00,
2013-11-06 09:39:00,39.4,36.4,30.00,NW,323,11.0,21.0,89,0.00,,,0.13,Wunderground v.1.15,2013-11-06 15:39:00,
2013-11-06 09:44:00,39.2,35.9,30.00,NNW,337,15.0,18.0,88,0.00,,,0.13,Wunderground v.1.15,2013-11-06 15:44:00,
2013-11-06 09:49:00,39.2,36.2,30.00,NNW,346,9.0,21.0,89,0.00,,,0.13,Wunderground v.1.15,2013-11-06 15:49:00,
2013-11-06 09:54:00,39.1,35.8,30.00,NNW,327,14.0,19.0,88,0.00,,,0.13,Wunderground v.1.15,2013-11-06 15:54:00,
2013-11-06 09:59:00,39.8,36.5,30.01,NNW,332,13.0,19.0,88,0.00,,,0.13,Wunderground v.1.15,2013-11-06 15:59:00,
2013-11-06 10:04:00,40.5,36.9,30.01,NNW,329,17.0,19.0,87,0.00,,,0.13,Wunderground v.1.15,2013-11-06 16:04:00,
2013-11-06 10:09:00,40.9,36.7,30.02,NNW,342,14.0,20.0,85,0.00,,,0.13,Wunderground v.1.15,2013-11-06 16:09:00,
2013-11-06 10:14:00,41.5,37.3,30.02,North,355,15.0,21.0,85,0.00,,,0.13,Wunderground v.1.15,2013-11-06 16:14:00,
2013-11-06 10:19:00,41.1,36.9,30.02,NNW,344,10.0,22.0,85,0.00,,,0.13,Wunderground v.1.15,2013-11-06 16:19:00,
2013-11-06 10:24:00,41.3,36.8,30.03,NNW,333,14.0,21.0,84,0.00,,,0.13,Wunderground v.1.15,2013-11-06 16:24:00,
2013-11-06 10:29:00,41.4,36.6,30.03,North,355,14.0,22.0,83,0.00,,,0.13,Wunderground v.1.15,2013-11-06 16:29:00,
2013-11-06 10:34:00,41.9,37.1,30.03,NNW,339,17.0,20.0,83,0.00,,,0.13,Wunderground v.1.15,2013-11-06 16:34:00,
2013-11-06 10:39:00,42.0,36.9,30.03,North,355,12.0,23.0,82,0.00,,,0.13,Wunderground v.1.15,2013-11-06 16:39:00,
2013-11-06 10:44:00,42.3,37.5,30.03,NNW,331,18.0,18.0,83,0.00,,,0.13,Wunderground v.1.15,2013-11-06 16:44:00,
2013-11-06 10:49:00,42.0,36.6,30.04,NNW,348,16.0,23.0,81,0.00,,,0.13,Wunderground v.1.15,2013-11-06 16:49:00,
2013-11-06 10:54:00,42.0,36.6,30.04,NNW,346,17.0,20.0,81,0.00,,,0.13,Wunderground v.1.15,2013-11-06 16:54:00,
2013-11-06 10:59:00,42.5,37.1,30.04,NW,325,21.0,21.0,81,0.00,,,0.13,Wunderground v.1.15,2013-11-06 16:59:00,
2013-11-06 11:04:00,42.6,36.5,30.04,NNW,343,15.0,21.0,79,0.00,,,0.13,Wunderground v.1.15,2013-11-06 17:04:00,
2013-11-06 11:09:00,42.7,37.0,30.04,NW,317,17.0,21.0,80,0.00,,,0.13,Wunderground v.1.15,2013-11-06 17:09:00,
2013-11-06 11:14:00,42.5,36.1,30.04,NNW,341,16.0,23.0,78,0.00,,,0.13,Wunderground v.1.15,2013-11-06 17:14:00,
2013-11-06 11:19:00,42.5,36.8,30.04,NNW,327,19.0,23.0,80,0.00,,,0.13,Wunderground v.1.15,2013-11-06 17:19:00,
2013-11-06 11:24:00,42.5,36.4,30.04,NNW,341,11.0,20.0,79,0.00,,,0.13,Wunderground v.1.15,2013-11-06 17:24:00,
2013-11-06 11:29:00,42.6,36.5,30.04,NW,321,21.0,21.0,79,0.00,,,0.13,Wunderground v.1.15,2013-11-06 17:29:00,
2013-11-06 11:34:00,42.5,36.1,30.04,NW,322,12.0,23.0,78,0.00,,,0.13,Wunderground v.1.15,2013-11-06 17:34:00,
2013-11-06 11:39:00,42.6,35.9,30.05,North,355,17.0,23.0,77,0.00,,,0.13,Wunderground v.1.15,2013-11-06 17:39:00,
2013-11-06 11:44:00,42.7,35.7,30.05,North,360,12.0,22.0,76,0.00,,,0.13,Wunderground v.1.15,2013-11-06 17:44:00,
2013-11-06 11:49:00,42.7,37.0,30.05,NW,322,21.0,22.0,80,0.00,,,0.13,Wunderground v.1.15,2013-11-06 17:49:00,
2013-11-06 11:54:00,42.2,36.5,30.05,NNW,328,20.0,23.0,80,0.00,,,0.13,Wunderground v.1.15,2013-11-06 17:54:00,
2013-11-06 12:00:00,42.1,36.1,30.05,NNW,336,19.0,19.0,79,0.00,,,0.13,Wunderground v.1.15,2013-11-06 18:00:00,
2013-11-06 12:05:00,42.0,36.0,30.05,NNW,327,14.0,16.0,79,0.00,,,0.13,Wunderground v.1.15,2013-11-06 18:05:00,
2013-11-06 12:10:00,42.4,36.0,30.05,NNW,328,19.0,19.0,78,0.00,,,0.13,Wunderground v.1.15,2013-11-06 18:10:00,
2013-11-06 12:15:00,42.3,34.6,30.05,NW,312,16.0,22.0,74,0.00,,,0.13,Wunderground v.1.15,2013-11-06 18:15:00,
2013-11-06 12:20:00,42.7,35.0,30.05,NNW,334,14.0,22.0,74,0.00,,,0.13,Wunderground v.1.15,2013-11-06 18:20:00,
2013-11-06 12:25:00,42.9,34.8,30.05,NNW,336,19.0,19.0,73,0.00,,,0.13,Wunderground v.1.15,2013-11-06 18:25:00,
2013-11-06 12:30:00,43.1,35.7,30.05,NW,323,14.0,19.0,75,0.00,,,0.13,Wunderground v.1.15,2013-11-06 18:30:00,
2013-11-06 12:35:00,43.3,35.6,30.05,NNW,346,13.0,20.0,74,0.00,,,0.13,Wunderground v.1.15,2013-11-06 18:35:00,
2013-11-06 12:40:00,43.2,34.8,30.05,NW,317,16.0,20.0,72,0.00,,,0.13,Wunderground v.1.15,2013-11-06 18:40:00,
2013-11-06 12:45:00,43.4,33.9,30.05,NW,315,13.0,20.0,69,0.00,,,0.13,Wunderground v.1.15,2013-11-06 18:45:00,
2013-11-06 12:50:00,43.5,34.0,30.05,WNW,295,19.0,20.0,69,0.00,,,0.13,Wunderground v.1.15,2013-11-06 18:50:00,
2013-11-06 12:55:00,43.6,34.8,30.05,NW,311,15.0,21.0,71,0.00,,,0.13,Wunderground v.1.15,2013-11-06 18:55:00,
2013-11-06 13:00:00,43.9,34.0,30.05,NNW,327,14.0,16.0,68,0.00,,,0.13,Wunderground v.1.15,2013-11-06 19:00:00,
2013-11-06 13:05:00,43.8,33.6,30.06,NW,309,15.0,20.0,67,0.00,,,0.13,Wunderground v.1.15,2013-11-06 19:05:00,
2013-11-06 13:11:00,44.0,33.4,30.06,NW,323,17.0,21.0,66,0.00,,,0.13,Wunderground v.1.15,2013-11-06 19:11:00,
2013-11-06 13:16:00,44.2,34.7,30.06,NW,323,17.0,19.0,69,0.00,,,0.13,Wunderground v.1.15,2013-11-06 19:16:00,
2013-11-06 13:21:00,44.3,32.9,30.06,NW,318,18.0,21.0,64,0.00,,,0.13,Wunderground v.1.15,2013-11-06 19:21:00,
2013-11-06 13:26:00,44.3,32.5,30.06,NW,313,16.0,22.0,63,0.00,,,0.13,Wunderground v.1.15,2013-11-06 19:26:00,
2013-11-06 13:32:00,44.3,33.3,30.06,NW,319,16.0,16.0,65,0.00,,,0.13,Wunderground v.1.15,2013-11-06 19:32:00,
2013-11-06 13:37:00,44.3,33.7,30.07,NW,318,16.0,24.0,66,0.00,,,0.13,Wunderground v.1.15,2013-11-06 19:37:00,
2013-11-06 13:42:00,44.3,32.5,30.07,NW,311,18.0,18.0,63,0.00,,,0.13,Wunderground v.1.15,2013-11-06 19:42:00,
2013-11-06 13:47:00,44.4,31.4,30.07,NNW,333,15.0,23.0,60,0.00,,,0.13,Wunderground v.1.15,2013-11-06 19:47:00,
2013-11-06 13:52:00,44.5,31.1,30.07,NNW,327,14.0,16.0,59,0.00,,,0.13,Wunderground v.1.15,2013-11-06 19:52:00,
2013-11-06 13:58:00,44.7,30.8,30.08,NW,319,20.0,23.0,58,0.00,,,0.13,Wunderground v.1.15,2013-11-06 19:58:00,
2013-11-06 14:03:00,44.7,32.1,30.08,NW,315,11.0,15.0,61,0.00,,,0.13,Wunderground v.1.15,2013-11-06 20:03:00,
2013-11-06 14:08:00,44.6,31.1,30.08,WNW,302,14.0,23.0,59,0.00,,,0.13,Wunderground v.1.15,2013-11-06 20:08:00,
2013-11-06 14:13:00,44.6,30.7,30.08,NNW,339,20.0,20.0,58,0.00,,,0.13,Wunderground v.1.15,2013-11-06 20:13:00,
2013-11-06 14:18:00,44.6,30.7,30.08,NNW,338,16.0,21.0,58,0.00,,,0.13,Wunderground v.1.15,2013-11-06 20:18:00,
2013-11-06 14:23:00,44.6,30.7,30.08,NW,317,15.0,19.0,58,0.00,,,0.13,Wunderground v.1.15,2013-11-06 20:23:00,
2013-11-06 14:28:00,44.7,31.7,30.08,NNW,328,13.0,19.0,60,0.00,,,0.13,Wunderground v.1.15,2013-11-06 20:28:00,
2013-11-06 14:33:00,45.0,31.1,30.08,NNW,330,11.0,15.0,58,0.00,,,0.13,Wunderground v.1.15,2013-11-06 20:33:00,
2013-11-06 14:38:00,44.8,30.5,30.09,NW,310,11.0,20.0,57,0.00,,,0.13,Wunderground v.1.15,2013-11-06 20:38:00,
2013-11-06 14:43:00,45.0,31.5,30.09,NW,321,20.0,20.0,59,0.00,,,0.13,Wunderground v.1.15,2013-11-06 20:43:00,
2013-11-06 14:48:00,44.8,30.0,30.09,NW,323,16.0,20.0,56,0.00,,,0.13,Wunderground v.1.15,2013-11-06 20:48:00,
2013-11-06 14:53:00,44.8,30.0,30.10,NW,304,14.0,15.0,56,0.00,,,0.13,Wunderground v.1.15,2013-11-06 20:53:00,
2013-11-06 14:58:00,44.9,30.6,30.10,NW,313,15.0,19.0,57,0.00,,,0.13,Wunderground v.1.15,2013-11-06 20:58:00,
2013-11-06 15:03:00,44.7,30.4,30.10,NW,319,17.0,17.0,57,0.00,,,0.13,Wunderground v.1.15,2013-11-06 21:03:00,
2013-11-06 15:08:00,44.6,30.3,30.11,NW,320,9.0,18.0,57,0.00,,,0.13,Wunderground v.1.15,2013-11-06 21:08:00,
2013-11-06 15:13:00,44.5,30.2,30.11,NNW,332,13.0,16.0,57,0.00,,,0.13,Wunderground v.1.15,2013-11-06 21:13:00,
2013-11-06 15:18:00,44.6,30.7,30.11,NW,310,10.0,18.0,58,0.00,,,0.13,Wunderground v.1.15,2013-11-06 21:18:00,
2013-11-06 15:23:00,44.5,30.2,30.11,NNW,327,13.0,13.0,57,0.00,,,0.13,Wunderground v.1.15,2013-11-06 21:23:00,
2013-11-06 15:28:00,44.4,29.7,30.12,NNW,348,11.0,21.0,56,0.00,,,0.13,Wunderground v.1.15,2013-11-06 21:28:00,
2013-11-06 15:33:00,44.3,29.1,30.12,NW,316,13.0,14.0,55,0.00,,,0.13,Wunderground v.1.15,2013-11-06 21:33:00,
2013-11-06 15:38:00,44.3,30.0,30.12,NNW,344,9.0,17.0,57,0.00,,,0.13,Wunderground v.1.15,2013-11-06 21:38:00,
2013-11-06 15:43:00,44.1,29.4,30.13,NW,309,11.0,15.0,56,0.00,,,0.13,Wunderground v.1.15,2013-11-06 21:43:00,
2013-11-06 15:48:00,44.0,29.7,30.13,WNW,303,11.0,16.0,57,0.00,,,0.13,Wunderground v.1.15,2013-11-06 21:48:00,
2013-11-06 15:53:00,43.8,28.7,30.13,NNW,340,11.0,18.0,55,0.00,,,0.13,Wunderground v.1.15,2013-11-06 21:53:00,
2013-11-06 15:58:00,43.6,29.4,30.13,North,5,10.0,18.0,57,0.00,,,0.13,Wunderground v.1.15,2013-11-06 21:58:00,
2013-11-06 16:03:00,43.5,29.3,30.13,NNW,342,12.0,12.0,57,0.00,,,0.13,Wunderground v.1.15,2013-11-06 22:03:00,
2013-11-06 16:08:00,43.3,29.5,30.13,NNW,341,12.0,15.0,58,0.00,,,0.13,Wunderground v.1.15,2013-11-06 22:08:00,
2013-11-06 16:13:00,43.1,29.7,30.13,NNW,330,12.0,16.0,59,0.00,,,0.13,Wunderground v.1.15,2013-11-06 22:13:00,
2013-11-06 16:18:00,42.9,30.0,30.14,NW,313,12.0,16.0,60,0.00,,,0.13,Wunderground v.1.15,2013-11-06 22:18:00,
2013-11-06 16:23:00,42.6,29.3,30.14,NW,319,12.0,12.0,59,0.00,,,0.13,Wunderground v.1.15,2013-11-06 22:23:00,
2013-11-06 16:28:00,42.4,29.5,30.14,NW,325,12.0,16.0,60,0.00,,,0.13,Wunderground v.1.15,2013-11-06 22:28:00,
2013-11-06 16:33:00,42.0,29.9,30.14,WNW,302,13.0,13.0,62,0.00,,,0.13,Wunderground v.1.15,2013-11-06 22:33:00,
2013-11-06 16:38:00,41.6,29.9,30.15,NW,313,9.0,13.0,63,0.00,,,0.13,Wunderground v.1.15,2013-11-06 22:38:00,
2013-11-06 16:43:00,41.2,30.3,30.15,WNW,299,6.0,8.0,65,0.00,,,0.13,Wunderground v.1.15,2013-11-06 22:43:00,
2013-11-06 16:48:00,40.6,30.5,30.15,NNW,329,4.0,9.0,67,0.00,,,0.13,Wunderground v.1.15,2013-11-06 22:48:00,
2013-11-06 16:53:00,40.1,30.7,30.15,NW,317,8.0,8.0,69,0.00,,,0.13,Wunderground v.1.15,2013-11-06 22:53:00,
2013-11-06 16:58:00,39.7,30.7,30.15,NNW,327,5.0,9.0,70,0.00,,,0.13,Wunderground v.1.15,2013-11-06 22:58:00,
2013-11-06 17:03:00,39.2,30.6,30.15,NW,318,7.0,7.0,71,0.00,,,0.13,Wunderground v.1.15,2013-11-06 23:03:00,
2013-11-06 17:08:00,38.8,30.2,30.16,NW,304,6.0,7.0,71,0.00,,,0.13,Wunderground v.1.15,2013-11-06 23:08:00,
2013-11-06 17:13:00,38.3,30.1,30.16,WNW,300,5.0,6.0,72,0.00,,,0.13,Wunderground v.1.15,2013-11-06 23:13:00,
2013-11-06 17:23:00,37.4,29.9,30.16,NW,313,4.0,4.0,74,0.00,,,0.13,Wunderground v.1.15,2013-11-06 23:23:00,
2013-11-06 17:28:00,37.1,29.6,30.16,WNW,299,4.0,6.0,74,0.00,,,0.13,Wunderground v.1.15,2013-11-06 23:28:00,
2013-11-06 17:33:00,36.7,29.5,30.16,NW,308,4.0,5.0,75,0.00,,,0.13,Wunderground v.1.15,2013-11-06 23:33:00,
2013-11-06 20:07:00,30.2,26.8,30.20,NW,313,2.0,3.0,87,0.00,,,0.13,Wunderground v.1.15,2013-11-07 02:07:00,
2013-11-06 20:12:00,30.1,26.7,30.20,NW,319,2.0,2.0,87,0.00,,,0.13,Wunderground v.1.15,2013-11-07 02:12:00,
2013-11-06 20:17:00,30.1,27.0,30.20,NW,317,2.0,3.0,88,0.00,,,0.13,Wunderground v.1.15,2013-11-07 02:17:00,
2013-11-06 20:22:00,30.1,27.0,30.21,NW,316,3.0,3.0,88,0.00,,,0.13,Wunderground v.1.15,2013-11-07 02:22:00,
2013-11-06 20:27:00,30.1,26.7,30.21,NW,313,2.0,3.0,87,0.00,,,0.13,Wunderground v.1.15,2013-11-07 02:27:00,
2013-11-06 20:32:00,30.1,27.0,30.20,NW,310,1.0,2.0,88,0.00,,,0.13,Wunderground v.1.15,2013-11-07 02:32:00,
2013-11-06 20:37:00,30.1,27.0,30.20,NW,308,1.0,3.0,88,0.00,,,0.13,Wunderground v.1.15,2013-11-07 02:37:00,
2013-11-06 20:42:00,29.9,26.5,30.21,NW,311,1.0,2.0,87,0.00,,,0.13,Wunderground v.1.15,2013-11-07 02:42:00,
2013-11-06 20:48:00,29.7,26.3,30.21,NW,311,0.0,2.0,87,0.00,,,0.13,Wunderground v.1.15,2013-11-07 02:48:00,
2013-11-06 20:52:00,29.6,26.5,30.21,NW,311,0.0,1.0,88,0.00,,,0.13,Wunderground v.1.15,2013-11-07 02:52:00,
2013-11-06 20:57:00,29.5,26.4,30.21,NW,311,0.0,2.0,88,0.00,,,0.13,Wunderground v.1.15,2013-11-07 02:57:00,
2013-11-06 21:03:00,29.4,26.3,30.21,NW,311,1.0,1.0,88,0.00,,,0.13,Wunderground v.1.15,2013-11-07 03:03:00,
2013-11-06 21:08:00,29.3,26.2,30.21,NW,319,1.0,2.0,88,0.00,,,0.13,Wunderground v.1.15,2013-11-07 03:08:00,
2013-11-06 21:13:00,29.4,26.3,30.22,NW,320,2.0,2.0,88,0.00,,,0.13,Wunderground v.1.15,2013-11-07 03:13:00,
2013-11-06 21:18:00,29.4,26.6,30.22,NW,325,2.0,3.0,89,0.00,,,0.13,Wunderground v.1.15,2013-11-07 03:18:00,
2013-11-06 21:23:00,29.5,26.4,30.22,NNW,329,2.0,2.0,88,0.00,,,0.13,Wunderground v.1.15,2013-11-07 03:23:00,
2013-11-06 21:28:00,29.5,26.4,30.22,NNW,329,1.0,2.0,88,0.00,,,0.13,Wunderground v.1.15,2013-11-07 03:28:00,
2013-11-06 21:33:00,29.4,26.3,30.22,NNW,330,0.0,1.0,88,0.00,,,0.13,Wunderground v.1.15,2013-11-07 03:33:00,
2013-11-06 21:38:00,29.4,26.3,30.23,West,275,0.0,3.0,88,0.00,,,0.13,Wunderground v.1.15,2013-11-07 03:38:00,
2013-11-06 21:43:00,29.6,26.5,30.23,West,277,0.0,1.0,88,0.00,,,0.13,Wunderground v.1.15,2013-11-07 03:43:00,
2013-11-06 21:48:00,29.6,26.5,30.23,West,277,0.0,1.0,88,0.00,,,0.13,Wunderground v.1.15,2013-11-07 03:48:00,
2013-11-06 21:54:00,29.7,26.6,30.23,West,277,0.0,0.0,88,0.00,,,0.13,Wunderground v.1.15,2013-11-07 03:54:00,
2013-11-06 21:59:00,29.6,26.2,30.23,West,277,0.0,0.0,87,0.00,,,0.13,Wunderground v.1.15,2013-11-07 03:59:00,
2013-11-06 22:04:00,29.6,26.2,30.23,West,277,0.0,0.0,87,0.00,,,0.13,Wunderground v.1.15,2013-11-07 04:04:00,
2013-11-06 22:09:00,29.4,26.0,30.23,West,277,1.0,1.0,87,0.00,,,0.13,Wunderground v.1.15,2013-11-07 04:09:00,
2013-11-06 22:14:00,29.3,25.9,30.23,West,277,0.0,1.0,87,0.00,,,0.13,Wunderground v.1.15,2013-11-07 04:14:00,
2013-11-06 22:19:00,29.2,25.8,30.24,West,277,0.0,1.0,87,0.00,,,0.13,Wunderground v.1.15,2013-11-07 04:19:00,
2013-11-06 22:24:00,29.2,25.8,30.23,West,277,0.0,0.0,87,0.00,,,0.13,Wunderground v.1.15,2013-11-07 04:24:00,
2013-11-06 22:29:00,29.0,25.6,30.23,West,277,0.0,0.0,87,0.00,,,0.13,Wunderground v.1.15,2013-11-07 04:29:00,
2013-11-06 22:34:00,29.0,25.9,30.23,West,277,0.0,0.0,88,0.00,,,0.13,Wunderground v.1.15,2013-11-07 04:34:00,
2013-11-06 22:39:00,28.9,25.5,30.24,West,277,0.0,0.0,87,0.00,,,0.13,Wunderground v.1.15,2013-11-07 04:39:00,
2013-11-06 22:44:00,28.7,25.3,30.24,West,277,0.0,1.0,87,0.00,,,0.13,Wunderground v.1.15,2013-11-07 04:44:00,
2013-11-06 22:49:00,28.5,25.1,30.24,West,277,0.0,1.0,87,0.00,,,0.13,Wunderground v.1.15,2013-11-07 04:49:00,
2013-11-06 22:54:00,28.3,24.9,30.24,West,277,0.0,0.0,87,0.00,,,0.13,Wunderground v.1.15,2013-11-07 04:54:00,
2013-11-06 22:59:00,28.3,25.2,30.24,West,277,1.0,1.0,88,0.00,,,0.13,Wunderground v.1.15,2013-11-07 04:59:00,
2013-11-06 23:02:00,28.3,25.2,30.24,West,277,0.0,0.0,88,0.00,,,0.13,Wunderground v.1.15,2013-11-07 05:02:00,
2013-11-06 23:03:00,28.3,25.2,30.24,West,277,0.0,0.0,88,0.00,,,0.13,Wunderground v.1.15,2013-11-07 05:03:00,
2013-11-06 23:05:00,28.3,25.2,30.24,West,277,0.0,0.0,88,0.00,,,0.13,Wunderground v.1.15,2013-11-07 05:05:00,
2013-11-06 23:06:00,28.3,25.2,30.24,West,277,0.0,0.0,88,0.00,,,0.13,Wunderground v.1.15,2013-11-07 05:06:00,
2013-11-06 23:12:00,28.2,25.1,30.24,West,277,0.0,0.0,88,0.00,,,0.13,Wunderground v.1.15,2013-11-07 05:12:00,
2013-11-06 23:18:00,28.1,25.0,30.24,West,277,0.0,0.0,88,0.00,,,0.13,Wunderground v.1.15,2013-11-07 05:18:00,
2013-11-06 23:23:00,28.1,25.0,30.24,West,277,0.0,0.0,88,0.00,,,0.13,Wunderground v.1.15,2013-11-07 05:23:00,
2013-11-06 23:28:00,28.1,25.0,30.24,West,277,0.0,0.0,88,0.00,,,0.13,Wunderground v.1.15,2013-11-07 05:28:00,
2013-11-06 23:33:00,28.0,24.9,30.24,West,277,0.0,0.0,88,0.00,,,0.13,Wunderground v.1.15,2013-11-07 05:33:00,
2013-11-06 23:38:00,28.0,24.9,30.24,West,277,0.0,0.0,88,0.00,,,0.13,Wunderground v.1.15,2013-11-07 05:38:00,
2013-11-06 23:43:00,28.1,25.0,30.25,West,277,1.0,1.0,88,0.00,,,0.13,Wunderground v.1.15,2013-11-07 05:43:00,
2013-11-06 23:48:00,27.9,24.5,30.25,West,277,1.0,2.0,87,0.00,,,0.13,Wunderground v.1.15,2013-11-07 05:48:00,
2013-11-06 23:53:00,27.8,24.7,30.25,West,277,0.0,0.0,88,0.00,,,0.13,Wunderground v.1.15,2013-11-07 05:53:00,